createdAt,value
2023-04-10T00:00:45.641Z,101904.50
2023-04-10T00:05:47.114Z,101899.06
2023-04-10T00:10:48.590Z,101898.97
2023-04-10T00:15:50.780Z,101882.84
2023-04-10T00:20:52.242Z,101879.66
2023-04-10T00:25:53.711Z,101882.19
2023-04-10T00:30:55.336Z,101870.03
2023-04-10T00:35:56.837Z,101876.28
2023-04-10T00:40:58.324Z,101851.63
2023-04-10T00:45:59.869Z,101848.69
2023-04-10T00:51:01.525Z,101832.88
2023-04-10T00:56:03.007Z,101836.44
2023-04-10T01:01:04.596Z,101836.13
2023-04-10T01:06:26.587Z,101835.09
2023-04-10T01:11:37.329Z,101828.31
2023-04-10T01:16:46.710Z,101829.72
2023-04-10T01:21:48.178Z,101815.72
2023-04-10T01:27:11.251Z,101803.25
2023-04-10T01:32:14.109Z,101802.06
2023-04-10T01:37:21.681Z,101803.03
2023-04-10T01:42:23.130Z,101799.59
2023-04-10T01:47:24.620Z,101795.34
2023-04-10T01:52:26.125Z,101789.63
2023-04-10T01:57:30.509Z,101782.44
2023-04-10T02:02:32.781Z,101773.84
2023-04-10T02:07:36.974Z,101768.75
2023-04-10T02:12:46.995Z,101769.88
2023-04-10T02:17:48.814Z,101753.81
2023-04-10T02:22:50.646Z,101742.16
2023-04-10T02:27:52.125Z,101745.84
2023-04-10T02:32:53.620Z,101739.00
2023-04-10T02:37:55.459Z,101738.06
2023-04-10T02:42:56.985Z,101737.84
2023-04-10T02:47:58.535Z,101735.69
2023-04-10T02:53:00.242Z,101742.16
2023-04-10T02:58:01.807Z,101741.81
2023-04-10T03:03:03.366Z,101731.88
2023-04-10T03:08:05.014Z,101726.31
2023-04-10T03:13:06.603Z,101717.66
2023-04-10T03:18:09.198Z,101707.19
2023-04-10T03:23:10.951Z,101705.44
2023-04-10T03:28:12.456Z,101701.34
2023-04-10T03:33:13.931Z,101699.69
2023-04-10T03:38:15.558Z,101699.31
2023-04-10T03:43:17.026Z,101698.31
2023-04-10T03:48:18.494Z,101700.91
2023-04-10T03:53:20.068Z,101684.34
2023-04-10T03:58:21.645Z,101686.69
2023-04-10T04:03:23.443Z,101677.94
2023-04-10T04:08:25.018Z,101679.88
2023-04-10T04:13:27.163Z,101666.91
2023-04-10T04:18:28.668Z,101670.00
2023-04-10T04:23:30.294Z,101663.59
2023-04-10T04:28:31.765Z,101650.91
2023-04-10T04:33:33.238Z,101655.28
2023-04-10T04:38:34.701Z,101647.38
2023-04-10T04:43:36.271Z,101649.38
2023-04-10T04:48:37.762Z,101632.31
2023-04-10T04:53:39.256Z,101629.22
2023-04-10T04:58:40.811Z,101611.34
2023-04-10T05:03:42.432Z,101594.25
2023-04-10T05:08:44.139Z,101590.25
2023-04-10T05:13:45.957Z,101577.44
2023-04-10T05:18:47.501Z,101595.91
2023-04-10T05:23:49.046Z,101587.56
2023-04-10T05:28:50.633Z,101592.34
2023-04-10T05:33:52.092Z,101582.00
2023-04-10T05:38:53.982Z,101573.91
2023-04-10T05:43:55.710Z,101587.25
2023-04-10T05:48:57.799Z,101583.75
2023-04-10T05:53:59.279Z,101575.50
2023-04-10T05:59:01.913Z,101585.41
2023-04-10T06:04:03.817Z,101580.75
2023-04-10T06:09:05.390Z,101572.09
2023-04-10T06:14:06.889Z,101566.97
2023-04-10T06:19:08.446Z,101568.72
2023-04-10T06:24:11.665Z,101574.56
2023-04-10T06:29:14.323Z,101551.78
2023-04-10T06:34:15.799Z,101548.00
2023-04-10T06:39:17.796Z,101542.53
2023-04-10T06:44:19.285Z,101546.78
2023-04-10T06:49:21.056Z,101551.97
2023-04-10T06:54:22.562Z,101551.72
2023-04-10T06:59:24.055Z,101544.88
2023-04-10T07:04:25.596Z,101532.16
2023-04-10T07:09:27.598Z,101536.69
2023-04-10T07:14:29.107Z,101518.19
2023-04-10T07:19:31.254Z,101516.66
2023-04-10T07:24:32.807Z,101517.50
2023-04-10T07:29:34.424Z,101523.06
2023-04-10T07:34:36.588Z,101522.97
2023-04-10T07:39:38.061Z,101509.09
2023-04-10T07:44:39.528Z,101488.66
2023-04-10T07:49:41.897Z,101490.22
2023-04-10T07:54:43.396Z,101476.91
2023-04-10T07:59:44.894Z,101477.34
2023-04-10T08:04:46.464Z,101473.25
2023-04-10T08:09:48.247Z,101459.00
2023-04-10T08:14:51.489Z,101458.22
2023-04-10T08:19:52.997Z,101454.50
2023-04-10T08:24:54.494Z,101434.09
2023-04-10T08:29:56.316Z,101421.59
2023-04-10T08:34:57.821Z,101415.22
2023-04-10T08:39:59.332Z,101410.13
2023-04-10T08:45:00.999Z,101413.28
2023-04-10T08:50:06.069Z,101406.03
2023-04-10T08:55:08.265Z,101408.19
2023-04-10T09:00:22.452Z,101400.84
2023-04-10T09:05:26.670Z,101383.16
2023-04-10T09:10:28.163Z,101384.09
2023-04-10T09:15:29.676Z,101385.94
2023-04-10T09:20:31.678Z,101365.28
2023-04-10T09:25:38.777Z,101360.72
2023-04-10T09:30:41.371Z,101344.59
2023-04-10T09:35:42.849Z,101339.09
2023-04-10T09:40:45.212Z,101329.22
2023-04-10T09:45:50.992Z,101329.69
2023-04-10T09:50:52.522Z,101314.91
2023-04-10T09:55:54.012Z,101305.03
2023-04-10T10:00:55.805Z,101301.94
2023-04-10T10:05:57.280Z,101297.88
2023-04-10T10:10:59.549Z,101274.69
2023-04-10T10:16:15.514Z,101268.28
2023-04-10T10:21:17.142Z,101254.94
2023-04-10T10:26:18.728Z,101232.09
2023-04-10T10:31:20.262Z,101219.66
2023-04-10T10:36:21.818Z,101212.31
2023-04-10T10:41:31.000Z,101204.41
2023-04-10T10:46:35.861Z,101190.88
2023-04-10T10:51:43.886Z,101181.16
2023-04-10T10:56:45.520Z,101165.38
2023-04-10T11:02:17.833Z,101152.69
2023-04-10T11:07:19.632Z,101136.25
2023-04-10T11:12:24.540Z,101127.19
2023-04-10T11:17:51.974Z,101114.41
2023-04-10T11:23:10.928Z,101111.44
2023-04-10T11:28:32.265Z,101099.66
2023-04-10T11:33:33.770Z,101091.34
2023-04-10T11:38:35.296Z,101084.31
2023-04-10T11:43:36.777Z,101066.75
2023-04-10T11:48:38.368Z,101060.44
2023-04-10T11:53:40.478Z,101045.59
2023-04-10T11:58:41.996Z,101042.53
2023-04-10T12:03:44.014Z,101022.81
2023-04-10T12:08:47.600Z,101028.19
2023-04-10T12:13:52.132Z,101014.38
2023-04-10T12:18:54.062Z,100988.50
2023-04-10T12:23:55.776Z,100976.81
2023-04-10T12:28:58.389Z,100979.06
2023-04-10T12:34:00.813Z,100982.19
2023-04-10T12:39:03.164Z,100962.31
2023-04-10T12:44:09.571Z,100949.19
2023-04-10T12:49:14.629Z,100971.91
2023-04-10T12:54:31.965Z,100944.63
2023-04-10T12:59:33.742Z,100947.09
2023-04-10T13:04:35.326Z,100928.00
2023-04-10T13:09:37.229Z,100925.75
2023-04-10T13:14:38.726Z,100915.56
2023-04-10T13:19:40.209Z,100908.75
2023-04-10T13:24:41.908Z,100895.50
2023-04-10T13:29:43.543Z,100875.91
2023-04-10T13:34:45.329Z,100870.06
2023-04-10T13:39:46.798Z,100861.72
2023-04-10T13:44:48.393Z,100853.13
2023-04-10T13:49:49.857Z,100837.44
2023-04-10T13:54:51.360Z,100817.19
2023-04-10T13:59:53.398Z,100798.09
2023-04-10T14:04:54.894Z,100778.19
2023-04-10T14:09:56.400Z,100777.13
2023-04-10T14:14:58.787Z,100759.03
2023-04-10T14:20:00.454Z,100743.22
2023-04-10T14:25:12.548Z,100731.41
2023-04-10T14:30:15.408Z,100730.50
2023-04-10T14:35:17.077Z,100712.19
2023-04-10T14:40:18.647Z,100703.97
2023-04-10T14:45:20.149Z,100702.06
2023-04-10T14:50:21.677Z,100694.94
2023-04-10T14:55:24.655Z,100674.16
2023-04-10T15:00:26.440Z,100662.66
2023-04-10T15:05:28.019Z,100663.66
2023-04-10T15:10:30.727Z,100664.25
2023-04-10T15:15:32.254Z,100664.41
2023-04-10T15:20:33.728Z,100661.63
2023-04-10T15:25:35.295Z,100645.22
2023-04-10T15:30:36.822Z,100617.19
2023-04-10T15:35:38.380Z,100587.69
2023-04-10T15:40:39.862Z,100580.63
2023-04-10T15:45:41.645Z,100553.84
2023-04-10T15:50:43.310Z,100552.53
2023-04-10T15:55:44.833Z,100554.09
2023-04-10T16:00:46.404Z,100534.19
2023-04-10T16:05:47.904Z,100514.34
2023-04-10T16:10:49.399Z,100509.06
2023-04-10T16:15:51.338Z,100491.44
2023-04-10T16:20:52.866Z,100483.06
2023-04-10T16:25:54.357Z,100480.59
2023-04-10T16:30:57.284Z,100475.97
2023-04-10T16:35:58.922Z,100462.81
2023-04-10T16:41:04.104Z,100434.56
2023-04-10T16:46:05.930Z,100440.22
2023-04-10T16:51:08.922Z,100438.91
2023-04-10T16:56:10.589Z,100431.78
2023-04-10T17:01:21.976Z,100437.56
2023-04-10T17:06:23.550Z,100420.06
2023-04-10T17:11:25.052Z,100453.44
2023-04-10T17:16:26.570Z,100446.41
2023-04-10T17:21:28.178Z,100460.41
2023-04-10T17:26:30.739Z,100463.22
2023-04-10T17:31:32.175Z,100460.50
2023-04-10T17:36:33.701Z,100461.53
2023-04-10T17:41:35.219Z,100439.03
2023-04-10T17:46:36.729Z,100423.91
2023-04-10T17:51:40.440Z,100399.41
2023-04-10T17:56:42.570Z,100376.88
2023-04-10T18:01:44.193Z,100355.66
2023-04-10T18:06:45.826Z,100343.97
2023-04-10T18:11:50.772Z,100355.59
2023-04-10T18:16:52.281Z,100366.31
2023-04-10T18:21:53.792Z,100366.88
2023-04-10T18:26:56.149Z,100370.88
2023-04-10T18:31:57.605Z,100353.91
2023-04-10T18:36:59.211Z,100344.16
2023-04-10T18:42:02.531Z,100350.81
2023-04-10T18:47:04.978Z,100349.03
2023-04-10T18:52:07.470Z,100341.50
2023-04-10T18:57:09.045Z,100344.31
2023-04-10T19:02:10.805Z,100339.91
2023-04-10T19:07:12.744Z,100331.16
2023-04-10T19:12:14.338Z,100336.00
2023-04-10T19:17:15.902Z,100318.72
2023-04-10T19:22:17.437Z,100308.88
2023-04-10T19:27:18.932Z,100275.44
2023-04-10T19:32:20.623Z,100258.47
2023-04-10T19:37:22.132Z,100249.03
2023-04-10T19:42:23.663Z,100256.19
2023-04-10T19:47:25.157Z,100246.63
2023-04-10T19:52:26.784Z,100245.22
2023-04-10T19:57:28.367Z,100249.03
2023-04-10T20:02:30.097Z,100236.19
2023-04-10T20:07:31.761Z,100221.59
2023-04-10T20:12:33.261Z,100226.44
2023-04-10T20:17:35.633Z,100219.31
2023-04-10T20:22:37.108Z,100194.34
2023-04-10T20:27:38.610Z,100181.16
2023-04-10T20:32:40.202Z,100169.28
2023-04-10T20:37:41.699Z,100160.75
2023-04-10T20:42:43.772Z,100133.75
2023-04-10T20:47:45.290Z,100113.81
2023-04-10T20:52:46.808Z,100116.50
2023-04-10T20:57:48.303Z,100112.59
2023-04-10T21:02:49.919Z,100103.63
2023-04-10T21:07:51.563Z,100102.69
2023-04-10T21:12:53.065Z,100096.53
2023-04-10T21:17:54.618Z,100089.44
2023-04-10T21:22:56.425Z,100082.88
2023-04-10T21:27:57.875Z,100083.16
2023-04-10T21:32:59.438Z,100066.97
2023-04-10T21:38:02.283Z,100045.88
2023-04-10T21:43:04.162Z,100044.97
2023-04-10T21:48:05.809Z,100049.56
2023-04-10T21:53:07.359Z,100047.13
2023-04-10T21:58:08.834Z,100026.88
2023-04-10T22:03:10.680Z,100020.88
2023-04-10T22:08:13.744Z,100030.84
2023-04-10T22:13:27.330Z,100017.56
2023-04-10T22:18:31.713Z,100014.13
2023-04-10T22:23:33.192Z,100035.81
2023-04-10T22:28:34.676Z,100004.88
2023-04-10T22:33:37.467Z,100010.75
2023-04-10T22:38:39.003Z,99985.78
2023-04-10T22:43:40.575Z,99995.13
2023-04-10T22:48:42.072Z,100002.88
2023-04-10T22:53:43.582Z,99996.75
2023-04-10T22:58:45.210Z,99989.69
2023-04-10T23:03:46.873Z,100000.34
2023-04-10T23:08:48.336Z,99989.16
2023-04-10T23:13:49.833Z,99996.66
2023-04-10T23:18:51.289Z,99997.00
2023-04-10T23:23:52.776Z,99986.06
2023-04-10T23:28:54.487Z,99973.16
2023-04-10T23:33:56.092Z,99965.78
2023-04-10T23:38:57.571Z,99951.19
2023-04-10T23:43:59.037Z,99953.34
2023-04-10T23:49:00.502Z,99944.13
2023-04-10T23:54:01.957Z,99951.94
2023-04-10T23:59:03.426Z,99944.38
